createdAt,value
2022-08-28T00:00:38.920Z,0.00
2022-08-28T00:01:39.165Z,0.00
2022-08-28T00:02:39.437Z,0.00
2022-08-28T00:03:39.674Z,0.00
2022-08-28T00:04:39.963Z,0.00
2022-08-28T00:05:40.188Z,0.00
2022-08-28T00:06:40.435Z,0.00
2022-08-28T00:07:44.300Z,0.00
2022-08-28T00:08:41.966Z,0.00
2022-08-28T00:09:41.225Z,0.00
2022-08-28T00:10:41.469Z,0.00
2022-08-28T00:11:41.729Z,0.00
2022-08-28T00:12:41.980Z,0.00
2022-08-28T00:13:42.213Z,0.00
2022-08-28T00:14:42.456Z,0.00
2022-08-28T00:15:42.747Z,0.00
2022-08-28T00:16:43.039Z,0.00
2022-08-28T00:17:43.276Z,0.00
2022-08-28T00:18:43.523Z,0.00
2022-08-28T00:19:43.787Z,0.00
2022-08-28T00:20:44.032Z,0.00
2022-08-28T00:21:44.285Z,0.00
2022-08-28T00:22:44.523Z,0.00
2022-08-28T00:23:44.763Z,0.00
2022-08-28T00:24:45.012Z,0.00
2022-08-28T00:25:45.251Z,0.00
2022-08-28T00:26:45.513Z,0.00
2022-08-28T00:27:45.750Z,0.00
2022-08-28T00:28:45.992Z,0.00
2022-08-28T00:29:46.233Z,0.00
2022-08-28T00:30:46.495Z,0.00
2022-08-28T00:31:46.837Z,0.00
2022-08-28T00:32:46.953Z,0.00
2022-08-28T00:33:48.245Z,0.00
2022-08-28T00:34:47.409Z,0.00
2022-08-28T00:35:47.650Z,0.00
2022-08-28T00:36:47.913Z,0.00
2022-08-28T00:37:48.303Z,0.00
2022-08-28T00:38:48.479Z,0.00
2022-08-28T00:39:48.724Z,0.00
2022-08-28T00:40:49.011Z,0.00
2022-08-28T00:41:49.187Z,0.00
2022-08-28T00:42:50.396Z,0.00
2022-08-28T00:43:49.616Z,0.00
2022-08-28T00:44:49.863Z,0.00
2022-08-28T00:45:50.103Z,0.00
2022-08-28T00:46:50.439Z,0.00
2022-08-28T00:47:50.550Z,0.00
2022-08-28T00:48:50.792Z,0.00
2022-08-28T00:49:51.040Z,0.00
2022-08-28T00:50:51.281Z,0.00
2022-08-28T00:51:51.543Z,0.00
2022-08-28T00:52:51.790Z,0.00
2022-08-28T00:53:54.651Z,0.00
2022-08-28T00:54:58.453Z,0.00
2022-08-28T00:55:53.531Z,0.00
2022-08-28T00:56:52.790Z,0.00
2022-08-28T00:57:53.037Z,0.00
2022-08-28T00:58:53.288Z,0.00
2022-08-28T00:59:53.539Z,0.00
2022-08-28T01:00:53.813Z,0.00
2022-08-28T01:01:54.130Z,0.00
2022-08-28T01:02:54.307Z,0.00
2022-08-28T01:03:54.450Z,0.00
2022-08-28T01:04:54.705Z,0.00
2022-08-28T01:05:54.957Z,0.00
2022-08-28T01:06:55.229Z,0.00
2022-08-28T01:07:55.499Z,0.00
2022-08-28T01:08:55.760Z,0.00
2022-08-28T01:09:56.030Z,0.00
2022-08-28T01:10:56.288Z,0.00
2022-08-28T01:11:56.652Z,0.00
2022-08-28T01:12:56.769Z,0.00
2022-08-28T01:13:57.013Z,0.00
2022-08-28T01:14:57.288Z,0.00
2022-08-28T01:15:57.567Z,0.00
2022-08-28T01:16:57.896Z,0.00
2022-08-28T01:17:58.035Z,0.00
2022-08-28T01:18:58.280Z,0.00
2022-08-28T01:19:58.543Z,0.00
2022-08-28T01:20:58.789Z,0.00
2022-08-28T01:21:59.056Z,0.00
2022-08-28T01:22:59.317Z,0.00
2022-08-28T01:23:59.564Z,0.00
2022-08-28T01:24:59.818Z,0.00
2022-08-28T01:26:00.062Z,0.00
2022-08-28T01:27:00.356Z,0.00
2022-08-28T01:28:00.608Z,0.00
2022-08-28T01:29:00.852Z,0.00
2022-08-28T01:30:01.106Z,0.00
2022-08-28T01:31:01.383Z,0.00
2022-08-28T01:32:01.619Z,0.00
2022-08-28T01:33:01.869Z,0.00
2022-08-28T01:34:02.149Z,0.00
2022-08-28T01:35:02.395Z,0.00
2022-08-28T01:36:02.637Z,0.00
2022-08-28T01:37:03.754Z,0.00
2022-08-28T01:38:03.142Z,0.00
2022-08-28T01:39:03.388Z,0.00
2022-08-28T01:40:03.697Z,0.00
2022-08-28T01:41:03.936Z,0.00
2022-08-28T01:42:04.198Z,0.00
2022-08-28T01:43:04.443Z,0.00
2022-08-28T01:44:04.677Z,0.00
2022-08-28T01:45:04.949Z,0.00
2022-08-28T01:46:05.239Z,0.00
2022-08-28T01:47:05.495Z,0.00
2022-08-28T01:48:05.744Z,0.00
2022-08-28T01:49:06.000Z,0.00
2022-08-28T01:50:06.237Z,0.00
2022-08-28T01:51:06.477Z,0.00
2022-08-28T01:52:06.736Z,0.00
2022-08-28T01:53:06.983Z,0.00
2022-08-28T01:54:08.175Z,0.00
2022-08-28T01:55:07.393Z,0.00
2022-08-28T01:56:07.615Z,0.00
2022-08-28T01:57:07.878Z,0.00
2022-08-28T01:58:08.133Z,0.00
2022-08-28T01:59:08.375Z,0.00
2022-08-28T02:00:08.630Z,0.00
2022-08-28T02:01:08.870Z,0.00
2022-08-28T02:02:09.206Z,0.00
2022-08-28T02:03:09.369Z,0.00
2022-08-28T02:04:09.665Z,0.00
2022-08-28T02:05:09.898Z,0.00
2022-08-28T02:06:10.146Z,0.00
2022-08-28T02:07:10.425Z,0.00
2022-08-28T02:08:10.713Z,0.00
2022-08-28T02:09:14.577Z,0.00
2022-08-28T02:10:11.201Z,0.00
2022-08-28T02:11:11.435Z,0.00
2022-08-28T02:12:11.694Z,0.00
2022-08-28T02:13:11.934Z,0.00
2022-08-28T02:14:12.188Z,0.00
2022-08-28T02:15:12.466Z,0.00
2022-08-28T02:16:12.783Z,0.00
2022-08-28T02:17:13.021Z,0.00
2022-08-28T02:18:13.349Z,0.00
2022-08-28T02:19:13.554Z,0.00
2022-08-28T02:20:13.813Z,0.00
2022-08-28T02:21:14.064Z,0.00
2022-08-28T02:22:14.324Z,0.00
2022-08-28T02:23:14.585Z,0.00
2022-08-28T02:24:14.833Z,0.00
2022-08-28T02:25:15.074Z,0.00
2022-08-28T02:26:15.321Z,0.00
2022-08-28T02:27:15.586Z,0.00
2022-08-28T02:28:15.835Z,0.00
2022-08-28T02:29:16.097Z,0.00
2022-08-28T02:30:16.371Z,0.00
2022-08-28T02:31:16.678Z,0.00
2022-08-28T02:32:16.923Z,0.00
2022-08-28T02:33:17.167Z,0.00
2022-08-28T02:34:17.433Z,0.00
2022-08-28T02:35:17.665Z,0.00
2022-08-28T02:36:17.913Z,0.00
2022-08-28T02:37:18.155Z,0.00
2022-08-28T02:38:18.843Z,0.00
2022-08-28T02:39:18.713Z,0.00
2022-08-28T02:40:18.994Z,0.00
2022-08-28T02:41:19.202Z,0.00
2022-08-28T02:42:19.475Z,0.00
2022-08-28T02:43:19.714Z,0.00
2022-08-28T02:44:19.949Z,0.00
2022-08-28T02:45:20.191Z,0.00
2022-08-28T02:46:20.472Z,0.00
2022-08-28T02:47:20.730Z,0.00
2022-08-28T02:48:21.069Z,0.00
2022-08-28T02:49:21.241Z,0.00
2022-08-28T02:50:21.499Z,0.00
2022-08-28T02:51:21.745Z,0.00
2022-08-28T02:52:22.000Z,0.00
2022-08-28T02:53:22.249Z,0.00
2022-08-28T02:54:22.492Z,0.00
2022-08-28T02:55:22.730Z,0.00
2022-08-28T02:56:22.967Z,0.00
2022-08-28T02:57:23.233Z,0.00
2022-08-28T02:58:23.484Z,0.00
2022-08-28T02:59:23.751Z,0.00
2022-08-28T03:00:24.011Z,0.00
2022-08-28T03:01:24.304Z,0.00
2022-08-28T03:02:24.650Z,0.00
2022-08-28T03:03:24.800Z,0.00
2022-08-28T03:04:25.052Z,0.00
2022-08-28T03:05:25.300Z,0.00
2022-08-28T03:06:25.541Z,0.00
2022-08-28T03:07:25.802Z,0.00
2022-08-28T03:08:27.248Z,0.00
2022-08-28T03:09:26.324Z,0.00
2022-08-28T03:10:26.581Z,0.00
2022-08-28T03:11:26.835Z,0.00
2022-08-28T03:12:27.110Z,0.00
2022-08-28T03:13:27.522Z,0.00
2022-08-28T03:14:27.667Z,0.00
2022-08-28T03:15:27.930Z,0.00
2022-08-28T03:16:28.206Z,0.00
2022-08-28T03:17:28.494Z,0.00
2022-08-28T03:18:28.743Z,0.00
2022-08-28T03:19:28.988Z,0.00
2022-08-28T03:20:29.239Z,0.00
2022-08-28T03:21:29.499Z,0.00
2022-08-28T03:22:29.770Z,0.00
2022-08-28T03:23:30.015Z,0.00
2022-08-28T03:24:30.257Z,0.00
2022-08-28T03:25:30.498Z,0.00
2022-08-28T03:26:30.744Z,0.00
2022-08-28T03:27:31.007Z,0.00
2022-08-28T03:28:31.252Z,0.00
2022-08-28T03:29:31.494Z,0.00
2022-08-28T03:30:31.782Z,0.00
2022-08-28T03:31:31.992Z,0.00
2022-08-28T03:32:32.251Z,0.00
2022-08-28T03:33:32.500Z,0.00
2022-08-28T03:34:32.750Z,0.00
2022-08-28T03:35:32.987Z,0.00
2022-08-28T03:36:33.236Z,0.00
2022-08-28T03:37:33.496Z,0.00
2022-08-28T03:38:33.750Z,0.00
2022-08-28T03:39:34.005Z,0.00
2022-08-28T03:40:34.364Z,0.00
2022-08-28T03:41:34.624Z,0.00
2022-08-28T03:42:34.885Z,0.00
2022-08-28T03:43:35.146Z,0.00
2022-08-28T03:44:35.400Z,0.00
2022-08-28T03:45:35.701Z,0.00
2022-08-28T03:46:35.919Z,0.00
2022-08-28T03:47:36.226Z,0.00
2022-08-28T03:48:36.464Z,0.00
2022-08-28T03:49:36.726Z,0.00
2022-08-28T03:50:36.961Z,0.00
2022-08-28T03:51:37.205Z,0.00
2022-08-28T03:52:37.467Z,0.00
2022-08-28T03:53:37.707Z,0.00
2022-08-28T03:54:37.954Z,0.00
2022-08-28T03:55:38.194Z,0.00
2022-08-28T03:56:38.454Z,0.00
2022-08-28T03:57:38.715Z,0.00
2022-08-28T03:58:38.959Z,0.00
2022-08-28T03:59:39.224Z,0.00
2022-08-28T04:00:39.468Z,0.00
2022-08-28T04:01:39.769Z,0.00
2022-08-28T04:02:39.945Z,0.00
2022-08-28T04:03:40.244Z,0.00
2022-08-28T04:04:40.505Z,0.00
2022-08-28T04:05:40.745Z,0.00
2022-08-28T04:06:40.994Z,0.00
2022-08-28T04:07:41.252Z,0.00
2022-08-28T04:08:41.500Z,0.00
2022-08-28T04:09:41.744Z,0.00
2022-08-28T04:10:41.999Z,0.00
2022-08-28T04:11:42.235Z,0.00
2022-08-28T04:12:42.510Z,0.00
2022-08-28T04:13:42.746Z,0.00
2022-08-28T04:14:42.994Z,0.00
2022-08-28T04:15:43.239Z,0.00
2022-08-28T04:16:43.523Z,5.62
2022-08-28T04:17:43.819Z,5.62
2022-08-28T04:18:43.958Z,5.62
2022-08-28T04:19:44.213Z,5.62
2022-08-28T04:20:46.535Z,5.62
2022-08-28T04:21:44.720Z,5.62
2022-08-28T04:22:45.223Z,5.62
2022-08-28T04:23:45.245Z,5.62
2022-08-28T04:24:45.503Z,5.62
2022-08-28T04:25:45.736Z,5.62
2022-08-28T04:26:45.983Z,11.25
2022-08-28T04:27:46.240Z,11.25
2022-08-28T04:28:46.491Z,11.25
2022-08-28T04:29:46.737Z,11.25
2022-08-28T04:30:46.989Z,11.25
2022-08-28T04:31:54.289Z,11.25
2022-08-28T04:32:47.524Z,11.25
2022-08-28T04:33:49.466Z,11.25
2022-08-28T04:34:48.044Z,11.25
2022-08-28T04:35:48.301Z,11.25
2022-08-28T04:36:48.564Z,11.25
2022-08-28T04:37:48.833Z,11.25
2022-08-28T04:38:49.093Z,11.25
2022-08-28T04:39:49.337Z,11.25
2022-08-28T04:40:49.618Z,16.88
2022-08-28T04:41:49.872Z,16.88
2022-08-28T04:42:50.185Z,16.88
2022-08-28T04:43:50.436Z,16.88
2022-08-28T04:44:50.692Z,16.88
2022-08-28T04:45:50.980Z,22.50
2022-08-28T04:46:51.228Z,22.50
2022-08-28T04:47:51.553Z,22.50
2022-08-28T04:48:51.800Z,22.50
2022-08-28T04:49:52.048Z,22.50
2022-08-28T04:50:52.308Z,22.50
2022-08-28T04:51:52.581Z,28.12
2022-08-28T04:52:52.859Z,28.12
2022-08-28T04:53:53.141Z,33.75
2022-08-28T04:54:53.372Z,33.75
2022-08-28T04:55:55.243Z,39.38
2022-08-28T04:56:53.871Z,39.38
2022-08-28T04:57:54.136Z,39.38
2022-08-28T04:58:54.390Z,45.00
2022-08-28T04:59:54.693Z,45.00
2022-08-28T05:00:55.111Z,45.00
2022-08-28T05:01:55.224Z,45.00
2022-08-28T05:02:55.530Z,45.00
2022-08-28T05:03:55.769Z,45.00
2022-08-28T05:04:56.054Z,45.00
2022-08-28T05:05:56.315Z,45.00
2022-08-28T05:06:56.578Z,45.00
2022-08-28T05:07:56.866Z,45.00
2022-08-28T05:08:57.108Z,45.00
2022-08-28T05:09:57.374Z,45.00
2022-08-28T05:10:57.606Z,50.62
2022-08-28T05:11:57.849Z,50.62
2022-08-28T05:12:58.135Z,50.62
2022-08-28T05:13:58.384Z,50.62
2022-08-28T05:14:58.651Z,50.62
2022-08-28T05:15:58.981Z,50.62
2022-08-28T05:16:59.217Z,50.62
2022-08-28T05:17:59.592Z,50.62
2022-08-28T05:18:59.810Z,50.62
2022-08-28T05:20:00.057Z,50.62
2022-08-28T05:21:00.306Z,50.62
2022-08-28T05:22:00.559Z,50.62
2022-08-28T05:23:00.848Z,56.25
2022-08-28T05:24:01.113Z,56.25
2022-08-28T05:25:01.433Z,56.25
2022-08-28T05:26:01.708Z,56.25
2022-08-28T05:27:01.965Z,61.88
2022-08-28T05:28:02.245Z,61.88
2022-08-28T05:29:02.494Z,67.50
2022-08-28T05:30:02.755Z,73.12
2022-08-28T05:31:03.017Z,73.12
2022-08-28T05:32:03.309Z,78.75
2022-08-28T05:33:03.613Z,84.38
2022-08-28T05:34:03.826Z,90.00
2022-08-28T05:35:04.082Z,95.62
2022-08-28T05:36:04.324Z,95.62
2022-08-28T05:37:04.596Z,101.25
2022-08-28T05:38:04.865Z,101.25
2022-08-28T05:39:05.120Z,106.88
2022-08-28T05:40:05.436Z,106.88
2022-08-28T05:41:05.571Z,112.50
2022-08-28T05:42:05.895Z,118.12
2022-08-28T05:43:06.133Z,123.75
2022-08-28T05:44:06.425Z,129.38
2022-08-28T05:45:06.777Z,135.00
2022-08-28T05:46:07.007Z,140.62
2022-08-28T05:47:07.165Z,146.25
2022-08-28T05:48:07.438Z,151.88
2022-08-28T05:49:09.981Z,151.88
2022-08-28T05:50:07.963Z,151.88
2022-08-28T05:51:08.237Z,157.50
2022-08-28T05:52:08.491Z,163.12
2022-08-28T05:53:08.755Z,163.12
2022-08-28T05:54:09.015Z,168.75
2022-08-28T05:55:09.438Z,168.75
2022-08-28T05:56:09.477Z,168.75
2022-08-28T05:57:09.747Z,180.00
2022-08-28T05:58:10.004Z,174.38
2022-08-28T05:59:10.310Z,191.25
2022-08-28T06:00:10.462Z,213.75
2022-08-28T06:01:10.714Z,236.25
2022-08-28T06:02:10.984Z,230.62
2022-08-28T06:03:11.236Z,236.25
2022-08-28T06:04:11.529Z,247.50
2022-08-28T06:05:13.052Z,230.62
2022-08-28T06:06:11.903Z,225.00
2022-08-28T06:07:12.174Z,185.62
2022-08-28T06:08:12.506Z,185.62
2022-08-28T06:09:12.753Z,208.12
2022-08-28T06:10:13.031Z,236.25
2022-08-28T06:11:13.286Z,286.88
2022-08-28T06:12:13.466Z,264.38
2022-08-28T06:13:13.773Z,253.12
2022-08-28T06:14:14.041Z,264.38
2022-08-28T06:15:14.316Z,270.00
2022-08-28T06:16:14.619Z,309.38
2022-08-28T06:17:14.883Z,320.62
2022-08-28T06:18:15.232Z,371.25
2022-08-28T06:19:15.339Z,360.00
2022-08-28T06:20:15.663Z,326.25
2022-08-28T06:21:15.871Z,298.12
2022-08-28T06:22:16.099Z,354.38
2022-08-28T06:23:16.378Z,365.62
2022-08-28T06:24:17.662Z,405.00
2022-08-28T06:25:16.785Z,444.38
2022-08-28T06:26:17.032Z,421.88
2022-08-28T06:27:17.288Z,427.50
2022-08-28T06:28:17.561Z,416.25
2022-08-28T06:29:17.844Z,382.50
2022-08-28T06:30:18.064Z,354.38
2022-08-28T06:31:23.249Z,309.38
2022-08-28T06:32:19.559Z,298.12
2022-08-28T06:33:18.827Z,258.75
2022-08-28T06:34:19.056Z,253.12
2022-08-28T06:35:19.408Z,230.62
2022-08-28T06:36:19.531Z,241.88
2022-08-28T06:37:19.845Z,236.25
2022-08-28T06:38:20.081Z,230.62
2022-08-28T06:39:20.330Z,247.50
2022-08-28T06:40:20.637Z,253.12
2022-08-28T06:41:20.863Z,281.25
2022-08-28T06:42:21.145Z,281.25
2022-08-28T06:43:21.391Z,331.88
2022-08-28T06:44:21.730Z,354.38
2022-08-28T06:45:21.886Z,371.25
2022-08-28T06:46:22.256Z,348.75
2022-08-28T06:47:22.391Z,348.75
2022-08-28T06:48:22.721Z,455.62
2022-08-28T06:49:22.895Z,416.25
2022-08-28T06:50:23.111Z,371.25
2022-08-28T06:51:25.219Z,399.38
2022-08-28T06:52:23.634Z,360.00
2022-08-28T06:53:23.931Z,427.50
2022-08-28T06:54:24.059Z,444.38
2022-08-28T06:55:24.340Z,405.00
2022-08-28T06:56:25.738Z,433.12
2022-08-28T06:57:24.858Z,405.00
2022-08-28T06:58:25.108Z,433.12
2022-08-28T06:59:25.364Z,444.38
2022-08-28T07:00:25.653Z,388.12
2022-08-28T07:01:25.990Z,371.25
2022-08-28T07:02:28.198Z,393.75
2022-08-28T07:03:26.422Z,343.12
2022-08-28T07:04:26.664Z,292.50
2022-08-28T07:05:26.892Z,320.62
2022-08-28T07:06:27.151Z,303.75
2022-08-28T07:07:32.428Z,303.75
2022-08-28T07:08:28.683Z,298.12
2022-08-28T07:09:27.788Z,337.50
2022-08-28T07:10:28.028Z,444.38
2022-08-28T07:11:28.269Z,410.62
2022-08-28T07:12:28.524Z,399.38
2022-08-28T07:13:33.317Z,438.75
2022-08-28T07:14:29.965Z,540.00
2022-08-28T07:15:29.247Z,568.12
2022-08-28T07:16:29.491Z,753.75
2022-08-28T07:17:29.758Z,697.50
2022-08-28T07:18:30.020Z,708.75
2022-08-28T07:19:30.298Z,675.00
2022-08-28T07:20:30.527Z,691.88
2022-08-28T07:21:30.779Z,601.88
2022-08-28T07:22:31.002Z,630.00
2022-08-28T07:23:31.282Z,500.62
2022-08-28T07:24:31.530Z,511.88
2022-08-28T07:25:31.750Z,489.38
2022-08-28T07:26:31.992Z,534.38
2022-08-28T07:27:32.188Z,686.25
2022-08-28T07:28:32.442Z,489.38
2022-08-28T07:29:32.661Z,641.25
2022-08-28T07:30:32.876Z,556.88
2022-08-28T07:31:33.138Z,624.38
2022-08-28T07:32:33.378Z,720.00
2022-08-28T07:33:33.601Z,528.75
2022-08-28T07:34:33.852Z,534.38
2022-08-28T07:35:34.065Z,596.25
2022-08-28T07:36:34.274Z,534.38
2022-08-28T07:37:34.489Z,545.62
2022-08-28T07:38:34.759Z,573.75
2022-08-28T07:39:34.971Z,573.75
2022-08-28T07:40:35.255Z,556.88
2022-08-28T07:41:35.502Z,748.12
2022-08-28T07:42:35.857Z,843.75
2022-08-28T07:43:35.959Z,815.62
2022-08-28T07:44:36.213Z,703.12
2022-08-28T07:45:36.451Z,720.00
2022-08-28T07:46:36.575Z,781.88
2022-08-28T07:47:36.819Z,708.75
2022-08-28T07:48:37.051Z,680.62
2022-08-28T07:49:37.274Z,635.62
2022-08-28T07:50:37.478Z,967.50
2022-08-28T07:51:37.694Z,652.50
2022-08-28T07:52:37.933Z,585.00
2022-08-28T07:53:38.158Z,607.50
2022-08-28T07:54:38.382Z,675.00
2022-08-28T07:55:38.591Z,787.50
2022-08-28T07:56:38.806Z,573.75
2022-08-28T07:57:38.983Z,641.25
2022-08-28T07:58:39.223Z,787.50
2022-08-28T07:59:39.407Z,618.75
2022-08-28T08:00:39.628Z,551.25
2022-08-28T08:01:39.906Z,601.88
2022-08-28T08:02:40.037Z,607.50
2022-08-28T08:03:40.287Z,607.50
2022-08-28T08:04:40.498Z,669.38
2022-08-28T08:05:40.697Z,663.75
2022-08-28T08:06:40.913Z,590.62
2022-08-28T08:07:41.966Z,556.88
2022-08-28T08:08:41.400Z,624.38
2022-08-28T08:09:41.622Z,635.62
2022-08-28T08:10:41.840Z,545.62
2022-08-28T08:11:41.998Z,641.25
2022-08-28T08:12:42.260Z,624.38
2022-08-28T08:13:42.455Z,556.88
2022-08-28T08:14:42.651Z,568.12
2022-08-28T08:15:42.876Z,624.38
2022-08-28T08:16:43.117Z,686.25
2022-08-28T08:17:43.351Z,703.12
2022-08-28T08:18:43.608Z,607.50
2022-08-28T08:19:43.831Z,736.88
2022-08-28T08:20:44.046Z,630.00
2022-08-28T08:21:44.255Z,551.25
2022-08-28T08:22:45.451Z,753.75
2022-08-28T08:23:44.665Z,607.50
2022-08-28T08:24:44.868Z,613.12
2022-08-28T08:25:45.094Z,641.25
2022-08-28T08:26:45.315Z,669.38
2022-08-28T08:27:46.686Z,691.88
2022-08-28T08:28:45.713Z,866.25
2022-08-28T08:29:45.826Z,776.25
2022-08-28T08:30:46.086Z,725.62
2022-08-28T08:31:46.296Z,551.25
2022-08-28T08:32:46.503Z,506.25
2022-08-28T08:33:46.729Z,556.88
2022-08-28T08:34:46.949Z,573.75
2022-08-28T08:35:47.209Z,489.38
2022-08-28T08:36:47.342Z,731.25
2022-08-28T08:37:47.542Z,675.00
2022-08-28T08:38:47.784Z,725.62
2022-08-28T08:39:48.007Z,961.88
2022-08-28T08:40:48.348Z,607.50
2022-08-28T08:41:48.509Z,770.62
2022-08-28T08:42:48.636Z,984.38
2022-08-28T08:43:48.904Z,855.00
2022-08-28T08:44:49.105Z,663.75
2022-08-28T08:45:49.350Z,781.88
2022-08-28T08:46:49.497Z,686.25
2022-08-28T08:47:49.791Z,658.12
2022-08-28T08:48:50.252Z,551.25
2022-08-28T08:49:50.310Z,585.00
2022-08-28T08:50:50.324Z,596.25
2022-08-28T08:51:50.537Z,624.38
2022-08-28T08:52:50.735Z,613.12
2022-08-28T08:53:51.002Z,596.25
2022-08-28T08:54:51.229Z,630.00
2022-08-28T08:55:51.446Z,630.00
2022-08-28T08:56:51.650Z,601.88
2022-08-28T08:57:51.888Z,556.88
2022-08-28T08:58:52.109Z,534.38
2022-08-28T08:59:52.318Z,528.75
2022-08-28T09:00:52.554Z,568.12
2022-08-28T09:01:52.857Z,506.25
2022-08-28T09:02:52.974Z,523.12
2022-08-28T09:03:53.831Z,506.25
2022-08-28T09:04:53.470Z,601.88
2022-08-28T09:05:53.671Z,652.50
2022-08-28T09:06:53.909Z,585.00
2022-08-28T09:07:54.160Z,607.50
2022-08-28T09:08:54.439Z,888.75
2022-08-28T09:09:54.546Z,1198.12
2022-08-28T09:10:54.791Z,613.12
2022-08-28T09:11:56.504Z,607.50
2022-08-28T09:12:55.314Z,607.50
2022-08-28T09:13:55.564Z,601.88
2022-08-28T09:14:55.801Z,551.25
2022-08-28T09:15:56.070Z,506.25
2022-08-28T09:16:56.318Z,517.50
2022-08-28T09:17:56.539Z,500.62
2022-08-28T09:18:56.799Z,478.12
2022-08-28T09:19:57.011Z,506.25
2022-08-28T09:20:57.238Z,500.62
2022-08-28T09:21:57.454Z,562.50
2022-08-28T09:22:57.766Z,652.50
2022-08-28T09:23:57.924Z,703.12
2022-08-28T09:24:58.154Z,523.12
2022-08-28T09:25:59.793Z,489.38
2022-08-28T09:26:58.643Z,534.38
2022-08-28T09:27:58.751Z,528.75
2022-08-28T09:28:59.117Z,506.25
2022-08-28T09:29:59.236Z,635.62
2022-08-28T09:31:00.453Z,579.38
2022-08-28T09:31:59.617Z,725.62
2022-08-28T09:32:59.859Z,686.25
2022-08-28T09:34:00.093Z,810.00
2022-08-28T09:35:00.318Z,793.12
2022-08-28T09:36:00.543Z,725.62
2022-08-28T09:37:00.788Z,720.00
2022-08-28T09:38:00.998Z,765.00
2022-08-28T09:39:01.227Z,725.62
2022-08-28T09:40:01.517Z,765.00
2022-08-28T09:41:01.673Z,714.38
2022-08-28T09:42:01.907Z,703.12
2022-08-28T09:43:02.169Z,787.50
2022-08-28T09:44:02.429Z,781.88
2022-08-28T09:45:02.698Z,708.75
2022-08-28T09:46:03.909Z,663.75
2022-08-28T09:47:03.119Z,573.75
2022-08-28T09:48:03.338Z,540.00
2022-08-28T09:49:03.628Z,618.75
2022-08-28T09:50:03.753Z,624.38
2022-08-28T09:51:04.012Z,691.88
2022-08-28T09:52:04.228Z,579.38
2022-08-28T09:53:04.440Z,523.12
2022-08-28T09:54:04.688Z,534.38
2022-08-28T09:55:04.910Z,534.38
2022-08-28T09:56:05.139Z,573.75
2022-08-28T09:57:05.351Z,562.50
2022-08-28T09:58:05.561Z,534.38
2022-08-28T09:59:05.788Z,511.88
2022-08-28T10:00:05.988Z,517.50
2022-08-28T10:01:06.226Z,528.75
2022-08-28T10:02:06.533Z,517.50
2022-08-28T10:03:07.758Z,511.88
2022-08-28T10:04:07.073Z,506.25
2022-08-28T10:05:07.170Z,511.88
2022-08-28T10:06:07.379Z,523.12
2022-08-28T10:07:07.600Z,523.12
2022-08-28T10:08:07.806Z,466.88
2022-08-28T10:09:08.089Z,455.62
2022-08-28T10:10:08.192Z,455.62
2022-08-28T10:11:08.403Z,450.00
2022-08-28T10:12:08.691Z,450.00
2022-08-28T10:13:08.873Z,455.62
2022-08-28T10:14:09.099Z,478.12
2022-08-28T10:15:09.305Z,444.38
2022-08-28T10:16:09.596Z,433.12
2022-08-28T10:17:09.802Z,410.62
2022-08-28T10:18:10.026Z,416.25
2022-08-28T10:19:10.308Z,461.25
2022-08-28T10:20:10.437Z,466.88
2022-08-28T10:21:10.660Z,438.75
2022-08-28T10:22:10.895Z,410.62
2022-08-28T10:23:14.505Z,393.75
2022-08-28T10:24:12.306Z,427.50
2022-08-28T10:25:11.527Z,421.88
2022-08-28T10:26:11.757Z,444.38
2022-08-28T10:27:11.996Z,466.88
2022-08-28T10:28:12.516Z,461.25
2022-08-28T10:29:12.679Z,438.75
2022-08-28T10:30:13.522Z,416.25
2022-08-28T10:31:22.760Z,388.12
2022-08-28T10:32:13.150Z,382.50
2022-08-28T10:33:16.042Z,371.25
2022-08-28T10:34:13.608Z,365.62
2022-08-28T10:35:13.834Z,382.50
2022-08-28T10:36:28.790Z,371.25
2022-08-28T10:37:15.345Z,376.88
2022-08-28T10:38:14.775Z,376.88
2022-08-28T10:39:14.865Z,382.50
2022-08-28T10:40:15.104Z,376.88
2022-08-28T10:41:15.337Z,371.25
2022-08-28T10:42:15.561Z,365.62
2022-08-28T10:43:15.790Z,348.75
2022-08-28T10:44:16.042Z,343.12
2022-08-28T10:45:16.264Z,348.75
2022-08-28T10:46:16.576Z,354.38
2022-08-28T10:47:16.717Z,360.00
2022-08-28T10:48:16.951Z,360.00
2022-08-28T10:49:17.193Z,348.75
2022-08-28T10:50:17.429Z,348.75
2022-08-28T10:51:17.676Z,343.12
2022-08-28T10:52:17.914Z,337.50
2022-08-28T10:53:18.139Z,343.12
2022-08-28T10:54:18.387Z,354.38
2022-08-28T10:55:18.634Z,343.12
2022-08-28T10:56:18.851Z,320.62
2022-08-28T10:57:19.090Z,315.00
2022-08-28T10:58:24.435Z,303.75
2022-08-28T10:59:20.539Z,298.12
2022-08-28T11:00:19.799Z,292.50
2022-08-28T11:01:20.067Z,298.12
2022-08-28T11:02:20.293Z,303.75
2022-08-28T11:03:33.985Z,303.75
2022-08-28T11:04:25.378Z,309.38
2022-08-28T11:05:20.987Z,315.00
2022-08-28T11:06:21.102Z,320.62
2022-08-28T11:07:21.334Z,315.00
2022-08-28T11:08:21.565Z,303.75
2022-08-28T11:09:21.816Z,298.12
2022-08-28T11:10:22.055Z,292.50
2022-08-28T11:11:22.289Z,298.12
2022-08-28T11:12:22.507Z,303.75
2022-08-28T11:13:22.743Z,309.38
2022-08-28T11:14:22.982Z,315.00
2022-08-28T11:15:23.223Z,309.38
2022-08-28T11:16:23.550Z,298.12
2022-08-28T11:17:23.663Z,292.50
2022-08-28T11:18:25.310Z,286.88
2022-08-28T11:19:24.098Z,298.12
2022-08-28T11:20:24.362Z,298.12
2022-08-28T11:21:24.594Z,298.12
2022-08-28T11:22:24.821Z,286.88
2022-08-28T11:23:25.037Z,275.62
2022-08-28T11:24:25.284Z,270.00
2022-08-28T11:25:26.537Z,281.25
2022-08-28T11:26:26.712Z,298.12
2022-08-28T11:27:25.918Z,298.12
2022-08-28T11:28:26.163Z,281.25
2022-08-28T11:29:26.392Z,275.62
2022-08-28T11:30:26.694Z,275.62
2022-08-28T11:31:29.106Z,270.00
2022-08-28T11:32:27.080Z,275.62
2022-08-28T11:33:27.298Z,281.25
2022-08-28T11:34:27.536Z,275.62
2022-08-28T11:35:27.762Z,275.62
2022-08-28T11:36:28.014Z,275.62
2022-08-28T11:37:28.259Z,264.38
2022-08-28T11:38:28.510Z,286.88
2022-08-28T11:39:28.747Z,292.50
2022-08-28T11:40:29.012Z,281.25
2022-08-28T11:41:29.240Z,270.00
2022-08-28T11:42:29.486Z,270.00
2022-08-28T11:43:29.723Z,292.50
2022-08-28T11:44:29.972Z,309.38
2022-08-28T11:45:30.195Z,320.62
2022-08-28T11:46:30.462Z,337.50
2022-08-28T11:47:30.707Z,343.12
2022-08-28T11:48:30.942Z,348.75
2022-08-28T11:49:31.170Z,354.38
2022-08-28T11:50:31.402Z,343.12
2022-08-28T11:51:31.636Z,326.25
2022-08-28T11:52:31.884Z,326.25
2022-08-28T11:53:32.067Z,320.62
2022-08-28T11:54:32.299Z,348.75
2022-08-28T11:55:32.529Z,331.88
2022-08-28T11:56:32.756Z,298.12
2022-08-28T11:57:32.999Z,286.88
2022-08-28T11:58:33.221Z,292.50
2022-08-28T11:59:35.267Z,298.12
2022-08-28T12:00:33.722Z,286.88
2022-08-28T12:01:33.949Z,270.00
2022-08-28T12:02:34.265Z,275.62
2022-08-28T12:03:34.460Z,292.50
2022-08-28T12:04:34.738Z,292.50
2022-08-28T12:05:34.953Z,286.88
2022-08-28T12:06:35.189Z,281.25
2022-08-28T12:07:35.423Z,292.50
2022-08-28T12:08:35.648Z,298.12
2022-08-28T12:09:35.891Z,309.38
2022-08-28T12:10:36.130Z,320.62
2022-08-28T12:11:36.509Z,320.62
2022-08-28T12:12:36.678Z,320.62
2022-08-28T12:13:36.885Z,320.62
2022-08-28T12:14:37.113Z,292.50
2022-08-28T12:15:37.392Z,303.75
2022-08-28T12:16:37.533Z,343.12
2022-08-28T12:17:37.783Z,393.75
2022-08-28T12:18:38.021Z,410.62
2022-08-28T12:19:41.162Z,438.75
2022-08-28T12:20:39.431Z,433.12
2022-08-28T12:21:38.671Z,410.62
2022-08-28T12:22:38.891Z,393.75
2022-08-28T12:23:39.114Z,360.00
2022-08-28T12:24:39.341Z,348.75
2022-08-28T12:25:39.561Z,360.00
2022-08-28T12:26:39.790Z,326.25
2022-08-28T12:27:40.041Z,326.25
2022-08-28T12:28:40.267Z,337.50
2022-08-28T12:29:40.484Z,337.50
2022-08-28T12:30:40.777Z,382.50
2022-08-28T12:31:40.914Z,354.38
2022-08-28T12:32:41.143Z,354.38
2022-08-28T12:33:41.368Z,393.75
2022-08-28T12:34:41.612Z,343.12
2022-08-28T12:35:43.816Z,393.75
2022-08-28T12:36:42.087Z,354.38
2022-08-28T12:37:52.565Z,320.62
2022-08-28T12:38:43.500Z,315.00
2022-08-28T12:39:42.716Z,348.75
2022-08-28T12:40:42.982Z,410.62
2022-08-28T12:41:43.209Z,393.75
2022-08-28T12:42:43.460Z,399.38
2022-08-28T12:43:46.738Z,393.75
2022-08-28T12:44:43.870Z,365.62
2022-08-28T12:45:44.130Z,348.75
2022-08-28T12:46:44.384Z,376.88
2022-08-28T12:47:44.641Z,393.75
2022-08-28T12:48:44.858Z,421.88
2022-08-28T12:49:45.080Z,433.12
2022-08-28T12:50:45.350Z,399.38